Lr2 Pioneer — VREE7 — position and weather

sailwx.info

Track history (hours):
 
Tides and Currents Weather Stations Pressure Air Temp Water Temp Dewpoint Dewpoint Depression Visibility Wind Speed Wind Dir Waves Ship Positions

Lr2 Pioneer

Last reported at 2016-Aug-14 11:15 UTC. Time now 2016-Aug-28 06:53 UTC.
Position S 29°28' E 031°48'.
Warning: this ship's position is 13 days out of date.

Length 244 m; draft 8.1 m.

Type: Ship (hazmat cat A). MMSI: 477114400.

Date/timePositionNaut miles runAvg speedWind from/ knotsBaromVisibWave heightAir tempDewpointWater temp
2016-Aug-14 11:15S 29°28' E 031°48'912.5
2016-Aug-14 10:33S 29°35' E 031°41'1312.6
2016-Aug-14 09:33S 29°44' E 031°31'1211.8
2016-Aug-14 08:33S 29°50' E 031°20'1010.3
2016-Aug-14 07:33S 29°50' E 031°08'5 5.2
2016-Aug-14 06:33S 29°53' E 031°03'1 0.4
2016-Aug-14 04:33S 29°53' E 031°02'0 0.0
2016-Aug-14 03:33S 29°53' E 031°02'0 0.0
2016-Aug-14 02:33S 29°53' E 031°02'0 0.0
2016-Aug-14 01:33S 29°53' E 031°02'0 0.0
2016-Aug-14 00:33S 29°53' E 031°02'0 0.0
2016-Aug-13 23:33S 29°53' E 031°02'0 0.0
2016-Aug-13 22:33S 29°53' E 031°02'0 0.0
2016-Aug-13 21:33S 29°53' E 031°02'0 0.0
2016-Aug-13 20:33S 29°53' E 031°02'0 0.0
2016-Aug-13 19:33S 29°53' E 031°02'0 0.0
2016-Aug-13 18:33S 29°53' E 031°02'0 0.0
2016-Aug-13 17:33S 29°53' E 031°02'0 0.0
2016-Aug-13 11:33S 29°53' E 031°02'0 0.0
2016-Aug-13 10:33S 29°53' E 031°02'0 0.0
2016-Aug-13 09:33S 29°53' E 031°02'0 0.2
2016-Aug-13 08:34S 29°53' E 031°02'6 5.5
2016-Aug-13 07:31S 29°49' E 031°06'2 1.6
2016-Aug-13 06:34S 29°48' E 031°07'0 0.4
2016-Aug-13 05:34S 29°48' E 031°07'1 1.1
2016-Aug-13 04:34S 29°47' E 031°08'4 3.6
2016-Aug-13 03:33S 29°44' E 031°11'2 1.9
2016-Aug-13 02:29S 29°43' E 031°13'0 0.0
2016-Aug-13 01:29S 29°43' E 031°13'0 0.0
2016-Aug-13 00:29S 29°43' E 031°13'0 0.0
2016-Aug-12 23:32S 29°43' E 031°13'0 0.0
2016-Aug-12 22:32S 29°43' E 031°13'0 0.0
2016-Aug-12 21:29S 29°43' E 031°13'0 0.0
2016-Aug-12 20:29S 29°43' E 031°13'0 0.0
2016-Aug-12 19:32S 29°43' E 031°13'0 0.0
2016-Aug-12 18:32S 29°43' E 031°13'0 0.1
2016-Aug-12 17:29S 29°43' E 031°13'2 2.5
2016-Aug-12 16:33S 29°45' E 031°13'  
2016-Aug-09 02:23S 34°24' E 018°05'3010.7
2016-Aug-08 23:33S 33°56' E 017°52'1111.3
2016-Aug-08 22:33S 33°45' E 017°47'1110.7
2016-Aug-08 21:33S 33°35' E 017°43'1110.3
2016-Aug-08 20:28S 33°25' E 017°37'1010.5
2016-Aug-08 19:33S 33°16' E 017°34'20 9.9
2016-Aug-08 17:29S 32°57' E 017°25'  
Track history (hours):
 
Tides and Currents Weather Stations Pressure Air Temp Water Temp Dewpoint Dewpoint Depression Visibility Wind Speed Wind Dir Waves Ship Positions

Lr2 Pioneer

Last reported at 2016-Aug-14 11:15 UTC. Time now 2016-Aug-28 06:53 UTC.
Position S 29°28' E 031°48'.
Warning: this ship's position is 13 days out of date.

Length 244 m; draft 8.1 m.

Type: Ship (hazmat cat A). MMSI: 477114400.

Date/timePositionNaut miles runAvg speedWind from/ knotsBaromVisibWave heightAir tempDewpointWater temp
2016-Aug-14 11:15S 29°28' E 031°48'912.5
2016-Aug-14 10:33S 29°35' E 031°41'1312.6
2016-Aug-14 09:33S 29°44' E 031°31'1211.8
2016-Aug-14 08:33S 29°50' E 031°20'1010.3
2016-Aug-14 07:33S 29°50' E 031°08'5 5.2
2016-Aug-14 06:33S 29°53' E 031°03'1 0.4
2016-Aug-14 04:33S 29°53' E 031°02'0 0.0
2016-Aug-14 03:33S 29°53' E 031°02'0 0.0
2016-Aug-14 02:33S 29°53' E 031°02'0 0.0
2016-Aug-14 01:33S 29°53' E 031°02'0 0.0
2016-Aug-14 00:33S 29°53' E 031°02'0 0.0
2016-Aug-13 23:33S 29°53' E 031°02'0 0.0
2016-Aug-13 22:33S 29°53' E 031°02'0 0.0
2016-Aug-13 21:33S 29°53' E 031°02'0 0.0
2016-Aug-13 20:33S 29°53' E 031°02'0 0.0
2016-Aug-13 19:33S 29°53' E 031°02'0 0.0
2016-Aug-13 18:33S 29°53' E 031°02'0 0.0
2016-Aug-13 17:33S 29°53' E 031°02'0 0.0
2016-Aug-13 11:33S 29°53' E 031°02'0 0.0
2016-Aug-13 10:33S 29°53' E 031°02'0 0.0
2016-Aug-13 09:33S 29°53' E 031°02'0 0.2
2016-Aug-13 08:34S 29°53' E 031°02'6 5.5
2016-Aug-13 07:31S 29°49' E 031°06'2 1.6
2016-Aug-13 06:34S 29°48' E 031°07'0 0.4
2016-Aug-13 05:34S 29°48' E 031°07'1 1.1
2016-Aug-13 04:34S 29°47' E 031°08'4 3.6
2016-Aug-13 03:33S 29°44' E 031°11'2 1.9
2016-Aug-13 02:29S 29°43' E 031°13'0 0.0
2016-Aug-13 01:29S 29°43' E 031°13'0 0.0
2016-Aug-13 00:29S 29°43' E 031°13'0 0.0
2016-Aug-12 23:32S 29°43' E 031°13'0 0.0
2016-Aug-12 22:32S 29°43' E 031°13'0 0.0
2016-Aug-12 21:29S 29°43' E 031°13'0 0.0
2016-Aug-12 20:29S 29°43' E 031°13'0 0.0
2016-Aug-12 19:32S 29°43' E 031°13'0 0.0
2016-Aug-12 18:32S 29°43' E 031°13'0 0.1
2016-Aug-12 17:29S 29°43' E 031°13'2 2.5
2016-Aug-12 16:33S 29°45' E 031°13'  
2016-Aug-09 02:23S 34°24' E 018°05'3010.7
2016-Aug-08 23:33S 33°56' E 017°52'1111.3
2016-Aug-08 22:33S 33°45' E 017°47'1110.7
2016-Aug-08 21:33S 33°35' E 017°43'1110.3
2016-Aug-08 20:28S 33°25' E 017°37'1010.5
2016-Aug-08 19:33S 33°16' E 017°34'20 9.9
2016-Aug-08 17:29S 32°57' E 017°25'  

Dump ship's entire track history